Time,TemperatureF,DewpointF,PressureIn,WindDirection,WindDirectionDegrees,WindSpeedMPH,WindSpeedGustMPH,Humidity,HourlyPrecipIn,Conditions,Clouds,dailyrainin,SoftwareType,DateUTC
2013-08-26 00:01:00,66.3,62.3,30.14,SSE,148,0.0,0.0,87,0.00,RA,,0.00,WeatherDisplay:10.37,2013-08-26 04:01:00,
2013-08-26 00:02:00,66.3,62.3,30.14,SE,134,0.0,0.0,87,0.00,RA,,0.00,WeatherDisplay:10.37,2013-08-26 04:02:00,
2013-08-26 00:07:00,66.2,62.2,30.13,SE,134,0.0,0.0,87,0.00,RA,,0.00,WeatherDisplay:10.37,2013-08-26 04:07:00,
2013-08-26 00:12:00,66.1,61.8,30.12,SE,134,0.0,0.0,86,0.00,,,0.00,WeatherDisplay:10.37,2013-08-26 04:12:00,
2013-08-26 00:17:00,66.1,62.1,30.12,ESE,114,0.0,0.0,87,0.00,,,0.00,WeatherDisplay:10.37,2013-08-26 04:17:00,
2013-08-26 00:22:00,65.9,61.9,30.12,ESE,108,0.0,0.0,87,0.00,,,0.00,WeatherDisplay:10.37,2013-08-26 04:22:00,
2013-08-26 00:27:00,65.8,62.5,30.11,ESE,107,0.0,0.0,89,0.00,RA,,0.01,WeatherDisplay:10.37,2013-08-26 04:27:00,
2013-08-26 00:32:00,65.5,62.5,30.11,ENE,70,1.1,1.1,90,0.01,RA,,0.02,WeatherDisplay:10.37,2013-08-26 04:32:00,
2013-08-26 00:37:00,65.1,62.1,30.11,South,179,2.3,2.3,90,0.01,RA,,0.02,WeatherDisplay:10.37,2013-08-26 04:37:00,
2013-08-26 00:42:00,64.8,62.1,30.10,ESE,105,0.0,0.0,91,0.02,RA,,0.03,WeatherDisplay:10.37,2013-08-26 04:42:00,
2013-08-26 00:47:00,64.5,61.8,30.10,SE,132,1.1,0.0,91,0.02,RA,,0.03,WeatherDisplay:10.37,2013-08-26 04:47:00,
2013-08-26 00:52:00,64.3,61.6,30.10,ESE,109,0.0,0.0,91,0.02,,,0.03,WeatherDisplay:10.37,2013-08-26 04:52:00,
2013-08-26 00:57:00,64.3,61.6,30.10,SW,222,0.0,0.0,91,0.02,,,0.03,WeatherDisplay:10.37,2013-08-26 04:57:00,
2013-08-26 01:02:00,64.3,61.6,30.11,SW,222,0.0,0.0,91,0.03,,,0.03,WeatherDisplay:10.37,2013-08-26 05:02:00,
2013-08-26 01:07:00,64.5,61.8,30.11,SW,222,0.0,0.0,91,0.03,,,0.03,WeatherDisplay:10.37,2013-08-26 05:07:00,
2013-08-26 01:12:00,64.5,61.8,30.12,East,89,0.0,0.0,91,0.03,,,0.03,WeatherDisplay:10.37,2013-08-26 05:12:00,
2013-08-26 01:17:00,64.4,61.7,30.13,ENE,58,0.0,0.0,91,0.03,,,0.03,WeatherDisplay:10.37,2013-08-26 05:17:00,
2013-08-26 01:22:00,64.4,61.7,30.13,ENE,58,0.0,0.0,91,0.03,,,0.03,WeatherDisplay:10.37,2013-08-26 05:22:00,
2013-08-26 01:27:00,64.4,61.7,30.12,NW,304,0.0,0.0,91,0.02,,,0.03,WeatherDisplay:10.37,2013-08-26 05:27:00,
2013-08-26 01:32:00,64.3,61.6,30.12,NW,304,0.0,0.0,91,0.01,,,0.03,WeatherDisplay:10.37,2013-08-26 05:32:00,
2013-08-26 01:37:00,64.3,61.6,30.11,NW,304,0.0,0.0,91,0.01,,,0.03,WeatherDisplay:10.37,2013-08-26 05:37:00,
2013-08-26 01:42:00,64.3,61.6,30.11,NW,304,0.0,0.0,91,0.00,,,0.03,WeatherDisplay:10.37,2013-08-26 05:42:00,
2013-08-26 01:47:00,64.3,61.6,30.11,NW,304,0.0,0.0,91,0.00,,,0.03,WeatherDisplay:10.37,2013-08-26 05:47:00,
2013-08-26 01:52:00,64.2,61.5,30.11,NW,304,0.0,0.0,91,0.00,,,0.03,WeatherDisplay:10.37,2013-08-26 05:52:00,
2013-08-26 01:57:00,64.2,61.2,30.11,NW,304,0.0,0.0,90,0.00,,,0.03,WeatherDisplay:10.37,2013-08-26 05:57:00,
2013-08-26 02:02:00,64.2,61.2,30.10,NW,304,0.0,0.0,90,0.00,,,0.03,WeatherDisplay:10.37,2013-08-26 06:02:00,
2013-08-26 02:07:00,64.2,61.2,30.10,NW,304,0.0,0.0,90,0.00,,,0.03,WeatherDisplay:10.37,2013-08-26 06:07:00,
2013-08-26 02:12:00,64.2,61.2,30.10,NW,304,0.0,0.0,90,0.00,,,0.03,WeatherDisplay:10.37,2013-08-26 06:12:00,
2013-08-26 02:17:00,64.2,61.2,30.10,NW,304,0.0,0.0,90,0.00,,,0.03,WeatherDisplay:10.37,2013-08-26 06:17:00,
2013-08-26 02:22:00,64.2,61.2,30.09,NW,304,0.0,0.0,90,0.00,,,0.03,WeatherDisplay:10.37,2013-08-26 06:22:00,
2013-08-26 02:27:00,64.1,61.1,30.09,SE,139,0.0,0.0,90,0.00,,,0.03,WeatherDisplay:10.37,2013-08-26 06:27:00,
2013-08-26 02:32:00,64.1,61.1,30.08,East,94,0.0,0.0,90,0.00,,,0.03,WeatherDisplay:10.37,2013-08-26 06:32:00,
2013-08-26 02:37:00,64.0,60.7,30.08,SSE,148,0.0,0.0,89,0.00,,,0.03,WeatherDisplay:10.37,2013-08-26 06:37:00,
2013-08-26 02:42:00,63.9,60.6,30.08,SSE,148,0.0,0.0,89,0.00,,,0.03,WeatherDisplay:10.37,2013-08-26 06:42:00,
2013-08-26 02:47:00,63.9,60.6,30.08,SSE,148,0.0,0.0,89,0.00,,,0.03,WeatherDisplay:10.37,2013-08-26 06:47:00,
2013-08-26 02:52:00,63.9,60.6,30.08,SSE,148,0.0,0.0,89,0.00,,,0.03,WeatherDisplay:10.37,2013-08-26 06:52:00,
2013-08-26 02:57:00,63.9,60.6,30.08,SSE,148,0.0,0.0,89,0.00,,,0.03,WeatherDisplay:10.37,2013-08-26 06:57:00,
2013-08-26 03:02:00,63.9,60.6,30.07,SSE,148,0.0,0.0,89,0.00,,,0.03,WeatherDisplay:10.37,2013-08-26 07:02:00,
2013-08-26 03:07:00,63.9,60.6,30.07,SSE,148,0.0,0.0,89,0.00,,,0.03,WeatherDisplay:10.37,2013-08-26 07:07:00,
2013-08-26 03:13:00,63.9,60.6,30.07,SSE,148,0.0,0.0,89,0.00,,,0.03,WeatherDisplay:10.37,2013-08-26 07:13:00,
2013-08-26 03:18:00,63.9,60.6,30.07,SSE,148,0.0,0.0,89,0.00,,,0.03,WeatherDisplay:10.37,2013-08-26 07:18:00,
2013-08-26 03:23:00,63.8,60.5,30.07,SSE,148,0.0,0.0,89,0.00,,,0.03,WeatherDisplay:10.37,2013-08-26 07:23:00,
2013-08-26 03:28:00,63.8,60.5,30.07,SSE,148,0.0,0.0,89,0.00,,,0.03,WeatherDisplay:10.37,2013-08-26 07:28:00,
2013-08-26 03:33:00,63.8,60.2,30.06,SSE,148,0.0,0.0,88,0.00,,,0.03,WeatherDisplay:10.37,2013-08-26 07:33:00,
2013-08-26 03:38:00,63.9,60.3,30.07,SSE,148,0.0,0.0,88,0.00,,,0.03,WeatherDisplay:10.37,2013-08-26 07:38:00,
2013-08-26 03:43:00,63.9,60.3,30.07,SSE,148,0.0,0.0,88,0.00,,,0.03,WeatherDisplay:10.37,2013-08-26 07:43:00,
2013-08-26 03:48:00,63.9,60.3,30.07,SSE,148,0.0,0.0,88,0.00,,,0.03,WeatherDisplay:10.37,2013-08-26 07:48:00,
2013-08-26 03:53:00,63.9,60.3,30.06,SSE,148,0.0,0.0,88,0.00,,,0.03,WeatherDisplay:10.37,2013-08-26 07:53:00,
2013-08-26 03:58:00,63.9,60.3,30.07,SSE,148,0.0,0.0,88,0.00,,,0.03,WeatherDisplay:10.37,2013-08-26 07:58:00,
2013-08-26 04:03:00,63.9,60.3,30.07,SSE,148,0.0,0.0,88,0.00,,,0.03,WeatherDisplay:10.37,2013-08-26 08:03:00,
2013-08-26 04:08:00,63.9,60.3,30.07,SSE,148,0.0,0.0,88,0.00,,,0.03,WeatherDisplay:10.37,2013-08-26 08:08:00,
2013-08-26 04:13:00,63.9,60.3,30.07,SSE,148,0.0,0.0,88,0.00,,,0.03,WeatherDisplay:10.37,2013-08-26 08:13:00,
2013-08-26 04:18:00,63.9,60.3,30.07,SSE,148,0.0,0.0,88,0.00,,,0.03,WeatherDisplay:10.37,2013-08-26 08:18:00,
2013-08-26 04:23:00,64.0,60.4,30.07,SSE,148,0.0,0.0,88,0.00,,,0.03,WeatherDisplay:10.37,2013-08-26 08:23:00,
2013-08-26 04:28:00,64.0,60.4,30.06,SSE,148,0.0,0.0,88,0.00,,,0.03,WeatherDisplay:10.37,2013-08-26 08:28:00,
2013-08-26 04:33:00,64.1,60.5,30.06,SSE,148,0.0,0.0,88,0.00,,,0.03,WeatherDisplay:10.37,2013-08-26 08:33:00,
2013-08-26 04:38:00,64.1,60.5,30.06,SSE,148,0.0,0.0,88,0.00,,,0.03,WeatherDisplay:10.37,2013-08-26 08:38:00,
2013-08-26 04:43:00,64.2,60.6,30.06,SSE,148,0.0,0.0,88,0.00,,,0.03,WeatherDisplay:10.37,2013-08-26 08:43:00,
2013-08-26 04:48:00,64.3,60.7,30.06,SSE,148,0.0,0.0,88,0.00,,,0.03,WeatherDisplay:10.37,2013-08-26 08:48:00,
2013-08-26 04:53:00,64.3,60.7,30.06,SSE,148,0.0,0.0,88,0.00,,,0.03,WeatherDisplay:10.37,2013-08-26 08:53:00,
2013-08-26 04:58:00,64.3,60.7,30.06,SSE,148,0.0,0.0,88,0.00,,,0.03,WeatherDisplay:10.37,2013-08-26 08:58:00,
2013-08-26 05:03:00,64.3,60.7,30.05,SSE,148,0.0,0.0,88,0.00,,,0.03,WeatherDisplay:10.37,2013-08-26 09:03:00,
2013-08-26 05:08:00,64.4,60.8,30.06,SSE,148,0.0,0.0,88,0.00,,,0.03,WeatherDisplay:10.37,2013-08-26 09:08:00,
2013-08-26 05:13:00,64.4,60.8,30.06,SSE,148,0.0,0.0,88,0.00,,,0.03,WeatherDisplay:10.37,2013-08-26 09:13:00,
2013-08-26 05:18:00,64.5,60.9,30.06,SSW,207,0.0,0.0,88,0.00,,,0.03,WeatherDisplay:10.37,2013-08-26 09:18:00,
2013-08-26 05:23:00,64.5,60.9,30.05,ESE,107,0.0,0.0,88,0.00,,,0.03,WeatherDisplay:10.37,2013-08-26 09:23:00,
2013-08-26 05:28:00,64.6,61.0,30.06,ESE,107,0.0,0.0,88,0.00,,,0.03,WeatherDisplay:10.37,2013-08-26 09:28:00,
2013-08-26 05:33:00,64.6,61.0,30.05,ESE,108,0.0,0.0,88,0.00,,,0.04,WeatherDisplay:10.37,2013-08-26 09:33:00,
2013-08-26 05:38:00,64.7,61.1,30.05,ESE,107,0.0,0.0,88,0.01,RA,,0.04,WeatherDisplay:10.37,2013-08-26 09:38:00,
2013-08-26 05:43:00,64.7,61.1,30.05,ESE,107,0.0,0.0,88,0.01,RA,,0.04,WeatherDisplay:10.37,2013-08-26 09:43:00,
2013-08-26 05:48:00,64.7,61.1,30.06,ESE,107,0.0,0.0,88,0.01,,,0.04,WeatherDisplay:10.37,2013-08-26 09:48:00,
2013-08-26 05:53:00,64.8,61.2,30.05,ESE,107,0.0,0.0,88,0.01,,,0.04,WeatherDisplay:10.37,2013-08-26 09:53:00,
2013-08-26 05:58:00,64.8,61.2,30.05,ESE,107,0.0,0.0,88,0.01,,,0.04,WeatherDisplay:10.37,2013-08-26 09:58:00,
2013-08-26 06:03:00,64.8,61.2,30.06,ESE,107,0.0,0.0,88,0.01,CLR,,0.04,WeatherDisplay:10.37,2013-08-26 10:03:00,
2013-08-26 06:08:00,64.8,61.5,30.06,ESE,107,0.0,0.0,89,0.01,CLR,,0.04,WeatherDisplay:10.37,2013-08-26 10:08:00,
2013-08-26 06:13:00,64.9,61.6,30.05,ESE,107,0.0,0.0,89,0.01,CLR,,0.04,WeatherDisplay:10.37,2013-08-26 10:13:00,
2013-08-26 06:18:00,64.8,61.5,30.05,ESE,107,0.0,0.0,89,0.01,CLR,,0.04,WeatherDisplay:10.37,2013-08-26 10:18:00,
2013-08-26 06:23:00,64.9,61.6,30.05,ESE,107,0.0,0.0,89,0.01,CLR,,0.04,WeatherDisplay:10.37,2013-08-26 10:23:00,
2013-08-26 06:28:00,64.8,61.5,30.05,ESE,107,0.0,0.0,89,0.01,CLR,,0.04,WeatherDisplay:10.37,2013-08-26 10:28:00,
2013-08-26 06:33:00,64.8,61.5,30.05,ESE,107,0.0,0.0,89,0.01,CLR,,0.04,WeatherDisplay:10.37,2013-08-26 10:33:00,
2013-08-26 06:38:00,64.8,61.5,30.05,ESE,107,0.0,0.0,89,0.00,CLR,,0.04,WeatherDisplay:10.37,2013-08-26 10:38:00,
2013-08-26 06:43:00,64.8,61.5,30.05,ESE,107,0.0,0.0,89,0.00,CLR,,0.04,WeatherDisplay:10.37,2013-08-26 10:43:00,
2013-08-26 06:48:00,64.8,61.5,30.05,ESE,107,0.0,0.0,89,0.00,CLR,,0.04,WeatherDisplay:10.37,2013-08-26 10:48:00,
2013-08-26 06:53:00,64.8,61.5,30.05,ESE,107,0.0,0.0,89,0.00,CLR,,0.04,WeatherDisplay:10.37,2013-08-26 10:53:00,
2013-08-26 06:58:00,64.7,61.4,30.05,ESE,108,0.0,0.0,89,0.00,CLR,,0.04,WeatherDisplay:10.37,2013-08-26 10:58:00,
2013-08-26 07:03:00,64.7,61.4,30.05,ESE,107,0.0,0.0,89,0.00,CLR,,0.04,WeatherDisplay:10.37,2013-08-26 11:03:00,
2013-08-26 07:08:00,64.8,61.2,30.05,ESE,108,0.0,0.0,88,0.00,CLR,,0.04,WeatherDisplay:10.37,2013-08-26 11:08:00,
2013-08-26 07:13:00,64.9,61.3,30.05,ESE,108,0.0,0.0,88,0.00,CLR,,0.04,WeatherDisplay:10.37,2013-08-26 11:13:00,
2013-08-26 07:18:00,65.0,61.7,30.05,ESE,107,0.0,0.0,89,0.00,CLR,,0.04,WeatherDisplay:10.37,2013-08-26 11:18:00,
2013-08-26 07:23:00,65.1,61.8,30.05,ESE,107,0.0,0.0,89,0.00,CLR,,0.04,WeatherDisplay:10.37,2013-08-26 11:23:00,
2013-08-26 07:28:00,65.3,62.0,30.05,ESE,113,0.0,0.0,89,0.00,CLR,,0.04,WeatherDisplay:10.37,2013-08-26 11:28:00,
2013-08-26 07:33:00,65.5,62.5,30.06,East,89,0.0,0.0,90,0.00,CLR,,0.04,WeatherDisplay:10.37,2013-08-26 11:33:00,
2013-08-26 07:38:00,65.9,63.2,30.05,ESE,117,0.0,0.0,91,0.00,CLR,,0.04,WeatherDisplay:10.37,2013-08-26 11:38:00,
2013-08-26 07:43:00,66.2,63.8,30.05,East,93,0.0,0.0,92,0.00,CLR,,0.04,WeatherDisplay:10.37,2013-08-26 11:43:00,
2013-08-26 07:48:00,66.3,63.9,30.05,SSW,212,0.0,0.0,92,0.00,CLR,,0.04,WeatherDisplay:10.37,2013-08-26 11:48:00,
2013-08-26 07:53:00,66.8,64.1,30.05,SE,135,0.0,0.0,91,0.00,CLR,,0.04,WeatherDisplay:10.37,2013-08-26 11:53:00,
2013-08-26 07:58:00,67.3,64.3,30.05,ESE,120,2.3,2.3,90,0.00,CLR,,0.04,WeatherDisplay:10.37,2013-08-26 11:58:00,
2013-08-26 08:03:00,67.7,64.7,30.06,East,85,0.0,0.0,90,0.00,CLR,,0.04,WeatherDisplay:10.37,2013-08-26 12:03:00,
2013-08-26 08:08:00,68.0,64.6,30.06,East,97,3.5,3.5,89,0.00,CLR,,0.04,WeatherDisplay:10.37,2013-08-26 12:08:00,
2013-08-26 08:13:00,68.1,64.7,30.06,West,279,2.0,2.0,89,0.00,CLR,,0.04,WeatherDisplay:10.37,2013-08-26 12:13:00,
2013-08-26 08:18:00,68.4,65.0,30.06,West,278,0.0,0.0,89,0.00,CLR,,0.04,WeatherDisplay:10.37,2013-08-26 12:18:00,
2013-08-26 08:23:00,68.7,65.0,30.06,West,262,0.0,0.0,88,0.00,CLR,,0.04,WeatherDisplay:10.37,2013-08-26 12:23:00,
2013-08-26 08:29:00,68.9,65.2,30.06,WNW,297,2.3,0.0,88,0.00,CLR,,0.04,WeatherDisplay:10.37,2013-08-26 12:29:00,
2013-08-26 08:34:00,69.1,65.4,30.06,South,172,0.0,0.0,88,0.00,CLR,,0.04,WeatherDisplay:10.37,2013-08-26 12:34:00,
2013-08-26 08:39:00,69.3,65.3,30.06,ENE,75,0.0,0.0,87,0.00,CLR,,0.04,WeatherDisplay:10.37,2013-08-26 12:39:00,
2013-08-26 08:44:00,69.5,65.5,30.06,NNE,25,0.0,0.0,87,0.00,CLR,,0.04,WeatherDisplay:10.37,2013-08-26 12:44:00,
2013-08-26 08:49:00,69.6,65.2,30.06,ENE,72,3.5,0.0,86,0.00,CLR,,0.04,WeatherDisplay:10.37,2013-08-26 12:49:00,
2013-08-26 08:54:00,69.9,65.5,30.06,West,270,3.5,3.5,86,0.00,CLR,,0.04,WeatherDisplay:10.37,2013-08-26 12:54:00,
2013-08-26 08:59:00,70.2,65.8,30.06,NNE,30,3.5,3.5,86,0.00,CLR,,0.04,WeatherDisplay:10.37,2013-08-26 12:59:00,
2013-08-26 09:04:00,70.2,65.8,30.06,ENE,57,4.6,4.6,86,0.00,CLR,,0.04,WeatherDisplay:10.37,2013-08-26 13:04:00,
2013-08-26 09:09:00,70.1,66.0,30.06,WNW,293,2.3,2.3,87,0.01,RA,,0.05,WeatherDisplay:10.37,2013-08-26 13:09:00,
2013-08-26 09:14:00,69.7,66.0,30.06,East,79,1.0,1.0,88,0.01,RA,,0.05,WeatherDisplay:10.37,2013-08-26 13:14:00,
2013-08-26 09:19:00,69.5,66.1,30.06,NE,46,3.5,3.5,89,0.01,CLR,,0.05,WeatherDisplay:10.37,2013-08-26 13:19:00,
2013-08-26 09:24:00,69.1,66.0,30.05,ESE,120,0.0,1.1,90,0.01,CLR,,0.05,WeatherDisplay:10.37,2013-08-26 13:24:00,
2013-08-26 09:29:00,68.9,65.8,30.05,West,273,2.0,2.0,90,0.02,RA,,0.06,WeatherDisplay:10.37,2013-08-26 13:29:00,
2013-08-26 09:34:00,68.8,66.1,30.05,ENE,72,1.1,1.1,91,0.02,RA,,0.06,WeatherDisplay:10.37,2013-08-26 13:34:00,
2013-08-26 09:39:00,68.6,65.9,30.05,ESE,104,0.0,0.0,91,0.02,CLR,,0.06,WeatherDisplay:10.37,2013-08-26 13:39:00,
2013-08-26 09:44:00,68.4,65.7,30.04,SE,135,1.1,1.1,91,0.03,RA,,0.07,WeatherDisplay:10.37,2013-08-26 13:44:00,
2013-08-26 09:49:00,68.1,65.4,30.04,SE,141,1.1,0.0,91,0.04,RA,,0.08,WeatherDisplay:10.37,2013-08-26 13:49:00,
2013-08-26 09:54:00,67.9,65.2,30.03,ESE,104,2.3,2.3,91,0.05,RA,,0.09,WeatherDisplay:10.37,2013-08-26 13:54:00,
2013-08-26 09:59:00,67.8,65.1,30.03,ESE,104,0.0,0.0,91,0.06,RA,,0.10,WeatherDisplay:10.37,2013-08-26 13:59:00,
2013-08-26 10:04:00,67.6,64.9,30.02,East,89,0.0,0.0,91,0.07,RA,,0.11,WeatherDisplay:10.37,2013-08-26 14:04:00,
2013-08-26 10:09:00,67.5,64.5,30.02,SE,145,1.1,1.1,90,0.07,RA,,0.12,WeatherDisplay:10.37,2013-08-26 14:09:00,
2013-08-26 10:14:00,67.4,64.4,30.02,SE,145,0.0,0.0,90,0.07,RA,,0.12,WeatherDisplay:10.37,2013-08-26 14:14:00,
2013-08-26 10:19:00,67.4,64.4,30.02,SE,145,0.0,0.0,90,0.07,CLR,,0.12,WeatherDisplay:10.37,2013-08-26 14:19:00,
2013-08-26 10:24:00,67.4,64.0,30.02,SSW,209,2.3,2.3,89,0.07,CLR,,0.12,WeatherDisplay:10.37,2013-08-26 14:24:00,
2013-08-26 10:29:00,67.4,64.0,30.02,SSW,209,0.0,0.0,89,0.06,CLR,,0.12,WeatherDisplay:10.37,2013-08-26 14:29:00,
2013-08-26 10:34:00,67.4,64.0,30.02,ESE,116,0.0,0.0,89,0.07,RA,,0.13,WeatherDisplay:10.37,2013-08-26 14:34:00,
2013-08-26 10:39:00,67.5,63.8,30.03,East,82,0.0,0.0,88,0.07,RA,,0.13,WeatherDisplay:10.37,2013-08-26 14:39:00,
2013-08-26 10:44:00,67.6,63.9,30.04,East,82,0.0,0.0,88,0.06,CLR,,0.13,WeatherDisplay:10.37,2013-08-26 14:44:00,
2013-08-26 10:49:00,67.7,64.0,30.05,East,82,0.0,0.0,88,0.06,RA,,0.14,WeatherDisplay:10.37,2013-08-26 14:49:00,
2013-08-26 10:54:00,67.9,63.9,30.05,East,82,0.0,0.0,87,0.05,RA,,0.14,WeatherDisplay:10.37,2013-08-26 14:54:00,
2013-08-26 10:59:00,68.1,64.1,30.05,East,82,0.0,0.0,87,0.04,CLR,,0.14,WeatherDisplay:10.37,2013-08-26 14:59:00,
2013-08-26 11:04:00,68.2,64.2,30.06,East,81,0.0,0.0,87,0.03,CLR,,0.14,WeatherDisplay:10.37,2013-08-26 15:04:00,
2013-08-26 11:09:00,68.5,64.5,30.06,East,80,0.0,0.0,87,0.02,CLR,,0.14,WeatherDisplay:10.37,2013-08-26 15:09:00,
2013-08-26 11:14:00,68.7,64.7,30.06,East,80,0.0,0.0,87,0.02,CLR,,0.14,WeatherDisplay:10.37,2013-08-26 15:14:00,
2013-08-26 11:19:00,68.9,64.9,30.05,East,90,0.0,0.0,87,0.03,RA,,0.15,WeatherDisplay:10.37,2013-08-26 15:19:00,
2013-08-26 11:24:00,69.0,65.3,30.04,East,90,0.0,0.0,88,0.03,RA,,0.15,WeatherDisplay:10.37,2013-08-26 15:24:00,
2013-08-26 11:29:00,69.2,65.2,30.04,East,90,0.0,0.0,87,0.03,CLR,,0.15,WeatherDisplay:10.37,2013-08-26 15:29:00,
2013-08-26 11:34:00,69.2,65.5,30.04,WNW,287,1.1,0.0,88,0.03,RA,,0.16,WeatherDisplay:10.37,2013-08-26 15:34:00,
2013-08-26 11:39:00,69.3,65.6,30.04,WSW,238,2.0,2.0,88,0.03,RA,,0.16,WeatherDisplay:10.37,2013-08-26 15:39:00,
2013-08-26 11:44:00,69.3,65.9,30.04,North,8,0.0,0.2,89,0.03,CLR,,0.16,WeatherDisplay:10.37,2013-08-26 15:44:00,
2013-08-26 11:49:00,69.4,66.0,30.03,NW,304,0.0,0.0,89,0.02,CLR,,0.16,WeatherDisplay:10.37,2013-08-26 15:49:00,
2013-08-26 11:54:00,69.5,66.1,30.03,ENE,75,0.0,0.0,89,0.02,CLR,,0.16,WeatherDisplay:10.37,2013-08-26 15:54:00,
2013-08-26 11:59:00,69.6,66.2,30.03,SSW,204,0.0,0.0,89,0.02,CLR,,0.16,WeatherDisplay:10.37,2013-08-26 15:59:00,
2013-08-26 12:04:00,69.8,66.4,30.03,SSW,209,1.1,0.0,89,0.02,CLR,,0.16,WeatherDisplay:10.37,2013-08-26 16:04:00,
2013-08-26 12:09:00,70.2,66.8,30.02,ESE,115,1.1,1.1,89,0.02,CLR,,0.16,WeatherDisplay:10.37,2013-08-26 16:09:00,
2013-08-26 12:14:00,70.5,67.4,30.02,ESE,105,0.0,0.0,90,0.02,CLR,,0.16,WeatherDisplay:10.37,2013-08-26 16:14:00,
2013-08-26 12:19:00,70.7,67.6,30.02,East,93,0.0,0.0,90,0.01,CLR,,0.16,WeatherDisplay:10.37,2013-08-26 16:19:00,
2013-08-26 12:24:00,71.1,68.0,30.02,SW,224,0.0,0.0,90,0.01,CLR,,0.16,WeatherDisplay:10.37,2013-08-26 16:24:00,
2013-08-26 12:29:00,71.5,68.7,30.02,NNE,13,0.0,0.0,91,0.01,CLR,,0.16,WeatherDisplay:10.37,2013-08-26 16:29:00,
2013-08-26 12:34:00,71.9,69.1,30.01,SSE,153,0.0,0.0,91,0.00,CLR,,0.16,WeatherDisplay:10.37,2013-08-26 16:34:00,
2013-08-26 12:39:00,72.3,69.5,30.01,ENE,71,0.0,0.0,91,0.00,CLR,,0.16,WeatherDisplay:10.37,2013-08-26 16:39:00,
2013-08-26 12:44:00,72.8,70.0,30.01,WNW,285,1.1,0.0,91,0.00,CLR,,0.16,WeatherDisplay:10.37,2013-08-26 16:44:00,
2013-08-26 12:49:00,73.3,70.5,30.01,WNW,300,1.1,1.1,91,0.00,CLR,,0.16,WeatherDisplay:10.37,2013-08-26 16:49:00,
2013-08-26 12:54:00,73.9,70.8,30.00,NW,321,3.5,3.5,90,0.00,CLR,,0.16,WeatherDisplay:10.37,2013-08-26 16:54:00,
2013-08-26 12:59:00,74.6,71.5,30.00,NNW,336,1.1,1.1,90,0.00,CLR,,0.16,WeatherDisplay:10.37,2013-08-26 16:59:00,
2013-08-26 13:05:00,74.9,71.4,29.99,SE,143,0.0,0.0,89,0.00,CLR,,0.16,WeatherDisplay:10.37,2013-08-26 17:05:00,
2013-08-26 13:10:00,75.2,71.4,29.99,WSW,255,2.3,2.3,88,0.00,CLR,,0.16,WeatherDisplay:10.37,2013-08-26 17:10:00,
2013-08-26 13:15:00,75.8,72.0,29.98,ESE,112,1.1,1.1,88,0.00,CLR,,0.16,WeatherDisplay:10.37,2013-08-26 17:15:00,
2013-08-26 13:20:00,76.1,71.9,29.98,West,271,2.3,2.3,87,0.00,CLR,,0.16,WeatherDisplay:10.37,2013-08-26 17:20:00,
2013-08-26 13:25:00,75.9,71.8,29.97,South,190,1.1,1.1,87,0.00,CLR,,0.16,WeatherDisplay:10.37,2013-08-26 17:25:00,
2013-08-26 13:30:00,75.8,71.7,29.97,East,79,2.3,2.3,87,0.00,CLR,,0.16,WeatherDisplay:10.37,2013-08-26 17:30:00,
2013-08-26 13:35:00,75.7,71.6,29.97,SE,127,1.1,1.1,87,0.00,CLR,,0.16,WeatherDisplay:10.37,2013-08-26 17:35:00,
2013-08-26 13:40:00,75.9,72.1,29.97,ESE,107,0.0,0.0,88,0.00,CLR,,0.16,WeatherDisplay:10.37,2013-08-26 17:40:00,
2013-08-26 13:45:00,76.1,72.6,29.97,ESE,107,0.0,0.0,89,0.00,CLR,,0.16,WeatherDisplay:10.37,2013-08-26 17:45:00,
2013-08-26 13:50:00,76.2,72.4,29.97,SE,125,0.0,0.0,88,0.00,CLR,,0.16,WeatherDisplay:10.37,2013-08-26 17:50:00,
2013-08-26 13:55:00,76.3,72.8,29.97,SE,124,0.0,0.0,89,0.00,CLR,,0.16,WeatherDisplay:10.37,2013-08-26 17:55:00,
2013-08-26 14:00:00,76.1,72.6,29.97,SE,124,0.0,0.0,89,0.00,CLR,,0.16,WeatherDisplay:10.37,2013-08-26 18:00:00,
2013-08-26 14:05:00,75.7,72.2,29.98,ESE,113,0.0,0.0,89,0.00,,,0.16,WeatherDisplay:10.37,2013-08-26 18:05:00,
2013-08-26 14:10:00,75.6,72.5,29.98,ESE,120,0.0,0.0,90,0.00,,,0.16,WeatherDisplay:10.37,2013-08-26 18:10:00,
2013-08-26 14:15:00,75.5,72.4,29.98,ESE,120,0.0,0.0,90,0.00,,,0.16,WeatherDisplay:10.37,2013-08-26 18:15:00,
2013-08-26 14:20:00,75.5,72.4,29.98,ESE,120,0.0,0.0,90,0.00,,,0.16,WeatherDisplay:10.37,2013-08-26 18:20:00,
2013-08-26 14:25:00,75.6,72.5,29.98,ESE,120,0.0,0.0,90,0.00,,,0.16,WeatherDisplay:10.37,2013-08-26 18:25:00,
2013-08-26 14:30:00,75.9,72.8,29.98,ESE,120,0.0,0.0,90,0.00,,,0.16,WeatherDisplay:10.37,2013-08-26 18:30:00,
2013-08-26 14:35:00,76.1,73.0,29.98,ESE,120,0.0,0.0,90,0.00,,,0.16,WeatherDisplay:10.37,2013-08-26 18:35:00,
2013-08-26 14:40:00,76.1,73.0,29.98,East,95,0.0,0.0,90,0.00,,,0.16,WeatherDisplay:10.37,2013-08-26 18:40:00,
2013-08-26 14:45:00,76.2,72.7,29.97,ESE,116,0.0,0.0,89,0.00,,,0.16,WeatherDisplay:10.37,2013-08-26 18:45:00,
2013-08-26 14:50:00,76.2,72.7,29.97,SSE,165,0.0,0.0,89,0.00,,,0.16,WeatherDisplay:10.37,2013-08-26 18:50:00,
2013-08-26 14:55:00,76.3,73.1,29.97,SSE,165,0.0,0.0,90,0.00,,,0.16,WeatherDisplay:10.37,2013-08-26 18:55:00,
2013-08-26 15:00:00,76.3,73.1,29.97,SSE,165,0.0,0.0,90,0.00,,,0.16,WeatherDisplay:10.37,2013-08-26 19:00:00,
2013-08-26 15:05:00,76.1,72.6,29.97,SW,214,0.0,0.0,89,0.00,,,0.16,WeatherDisplay:10.37,2013-08-26 19:05:00,
2013-08-26 15:10:00,75.8,72.3,29.98,West,262,0.0,0.0,89,0.00,,,0.16,WeatherDisplay:10.37,2013-08-26 19:10:00,
2013-08-26 15:15:00,75.5,72.0,29.98,NW,321,1.1,0.0,89,0.00,,,0.16,WeatherDisplay:10.37,2013-08-26 19:15:00,
2013-08-26 15:20:00,75.4,72.3,29.98,West,280,0.0,0.0,90,0.00,,,0.16,WeatherDisplay:10.37,2013-08-26 19:20:00,
2013-08-26 15:25:00,75.2,72.1,29.97,West,280,0.0,0.0,90,0.00,,,0.16,WeatherDisplay:10.37,2013-08-26 19:25:00,
2013-08-26 15:30:00,75.1,72.0,29.97,West,280,0.0,0.0,90,0.00,,,0.16,WeatherDisplay:10.37,2013-08-26 19:30:00,
2013-08-26 15:35:00,75.1,72.0,29.97,West,280,0.0,0.0,90,0.00,,,0.16,WeatherDisplay:10.37,2013-08-26 19:35:00,
2013-08-26 15:40:00,74.7,71.6,29.98,NNE,18,1.1,1.1,90,0.00,,,0.16,WeatherDisplay:10.37,2013-08-26 19:40:00,
2013-08-26 15:47:00,74.3,71.2,29.99,West,262,2.3,2.3,90,0.01,RA,,0.17,WeatherDisplay:10.37,2013-08-26 19:47:00,
2013-08-26 15:52:00,74.0,71.2,29.98,ESE,120,2.3,2.3,91,0.08,RA,,0.24,WeatherDisplay:10.37,2013-08-26 19:52:00,
2013-08-26 15:57:00,73.5,70.7,29.97,East,83,0.0,0.0,91,0.11,RA,,0.27,WeatherDisplay:10.37,2013-08-26 19:57:00,
2013-08-26 16:02:00,73.0,70.2,29.97,WSW,242,1.1,1.1,91,0.12,RA,,0.28,WeatherDisplay:10.37,2013-08-26 20:02:00,
2013-08-26 16:07:00,72.4,69.6,29.97,East,91,1.1,1.1,91,0.14,RA,,0.30,WeatherDisplay:10.37,2013-08-26 20:07:00,
2013-08-26 16:12:00,72.0,69.2,29.97,SW,228,0.0,0.0,91,0.16,RA,,0.32,WeatherDisplay:10.37,2013-08-26 20:12:00,
2013-08-26 16:17:00,71.6,68.8,29.96,SE,140,0.0,0.0,91,0.19,RA,,0.36,WeatherDisplay:10.37,2013-08-26 20:17:00,
2013-08-26 16:22:00,71.3,68.5,29.95,ENE,78,0.0,0.0,91,0.22,RA,,0.38,WeatherDisplay:10.37,2013-08-26 20:22:00,
2013-08-26 16:27:00,71.0,67.9,29.95,East,81,0.0,0.0,90,0.24,RA,,0.40,WeatherDisplay:10.37,2013-08-26 20:27:00,
2013-08-26 16:32:00,70.8,67.7,29.94,South,186,3.5,3.5,90,0.26,RA,,0.42,WeatherDisplay:10.37,2013-08-26 20:32:00,
2013-08-26 16:37:00,70.7,67.6,29.94,NE,49,1.1,1.1,90,0.27,RA,,0.43,WeatherDisplay:10.37,2013-08-26 20:37:00,
2013-08-26 16:42:00,70.6,67.5,29.93,East,99,1.1,1.1,90,0.27,RA,,0.43,WeatherDisplay:10.37,2013-08-26 20:42:00,
2013-08-26 16:47:00,70.5,67.4,29.93,East,86,0.0,0.0,90,0.26,RA,,0.44,WeatherDisplay:10.37,2013-08-26 20:47:00,
2013-08-26 16:52:00,70.5,67.4,29.93,SE,127,2.3,2.3,90,0.20,RA,,0.44,WeatherDisplay:10.37,2013-08-26 20:52:00,
2013-08-26 16:57:00,70.4,67.3,29.93,ENE,63,0.0,0.0,90,0.17,CLR,,0.44,WeatherDisplay:10.37,2013-08-26 20:57:00,
2013-08-26 17:02:00,70.4,67.0,29.93,ENE,74,0.0,0.0,89,0.16,,,0.44,WeatherDisplay:10.37,2013-08-26 21:02:00,
2013-08-26 17:07:00,70.4,67.0,29.93,NW,318,0.0,0.0,89,0.14,,,0.44,WeatherDisplay:10.37,2013-08-26 21:07:00,
2013-08-26 17:12:00,70.5,67.1,29.92,ENE,77,0.0,0.0,89,0.12,,,0.44,WeatherDisplay:10.37,2013-08-26 21:12:00,
2013-08-26 17:17:00,70.6,67.2,29.92,ESE,108,0.0,0.0,89,0.09,,,0.44,WeatherDisplay:10.37,2013-08-26 21:17:00,
2013-08-26 17:22:00,70.6,67.2,29.92,ESE,107,0.0,0.0,89,0.06,,,0.44,WeatherDisplay:10.37,2013-08-26 21:22:00,
2013-08-26 17:27:00,70.5,67.1,29.92,ENE,66,0.0,0.0,89,0.04,,,0.44,WeatherDisplay:10.37,2013-08-26 21:27:00,
2013-08-26 17:32:00,70.5,67.1,29.92,ENE,67,0.0,0.0,89,0.02,,,0.44,WeatherDisplay:10.37,2013-08-26 21:32:00,
2013-08-26 17:37:00,70.4,67.0,29.92,ENE,68,0.0,0.0,89,0.01,,,0.44,WeatherDisplay:10.37,2013-08-26 21:37:00,
2013-08-26 17:42:00,70.3,66.9,29.92,ENE,68,0.0,0.0,89,0.01,,,0.44,WeatherDisplay:10.37,2013-08-26 21:42:00,
2013-08-26 17:47:00,70.2,66.8,29.92,ENE,68,0.0,0.0,89,0.00,,,0.44,WeatherDisplay:10.37,2013-08-26 21:47:00,
2013-08-26 17:52:00,70.1,66.7,29.92,ENE,68,0.0,0.0,89,0.00,,,0.44,WeatherDisplay:10.37,2013-08-26 21:52:00,
2013-08-26 17:57:00,70.1,66.4,29.93,ENE,68,0.0,0.0,88,0.00,,,0.44,WeatherDisplay:10.37,2013-08-26 21:57:00,
2013-08-26 18:02:00,70.1,66.4,29.93,ENE,68,0.0,0.0,88,0.00,,,0.44,WeatherDisplay:10.37,2013-08-26 22:02:00,
2013-08-26 18:07:00,70.1,66.4,29.93,ENE,68,0.0,0.0,88,0.00,,,0.44,WeatherDisplay:10.37,2013-08-26 22:07:00,
2013-08-26 18:12:00,69.9,66.2,29.93,ENE,68,0.0,0.0,88,0.00,,,0.44,WeatherDisplay:10.37,2013-08-26 22:12:00,
2013-08-26 18:17:00,69.9,66.2,29.92,ENE,68,0.0,0.0,88,0.00,,,0.44,WeatherDisplay:10.37,2013-08-26 22:17:00,
2013-08-26 18:22:00,69.8,66.1,29.92,ENE,69,0.0,0.0,88,0.00,,,0.44,WeatherDisplay:10.37,2013-08-26 22:22:00,
2013-08-26 18:27:00,69.8,66.1,29.92,ENE,68,0.0,0.0,88,0.00,,,0.44,WeatherDisplay:10.37,2013-08-26 22:27:00,
2013-08-26 18:32:00,69.8,66.1,29.91,ENE,68,0.0,0.0,88,0.00,,,0.44,WeatherDisplay:10.37,2013-08-26 22:32:00,
2013-08-26 18:37:00,69.8,66.1,29.91,ENE,75,0.0,0.0,88,0.00,,,0.44,WeatherDisplay:10.37,2013-08-26 22:37:00,
2013-08-26 18:42:00,69.8,66.1,29.91,ENE,75,0.0,0.0,88,0.00,,,0.44,WeatherDisplay:10.37,2013-08-26 22:42:00,
2013-08-26 18:47:00,69.7,66.0,29.91,ENE,75,0.0,0.0,88,0.00,,,0.44,WeatherDisplay:10.37,2013-08-26 22:47:00,
2013-08-26 18:52:00,69.7,66.0,29.91,ENE,75,0.0,0.0,88,0.00,,,0.44,WeatherDisplay:10.37,2013-08-26 22:52:00,
2013-08-26 18:57:00,69.7,65.7,29.91,ENE,75,0.0,0.0,87,0.00,,,0.44,WeatherDisplay:10.37,2013-08-26 22:57:00,
2013-08-26 19:02:00,69.7,65.7,29.91,ENE,75,0.0,0.0,87,0.00,,,0.44,WeatherDisplay:10.37,2013-08-26 23:02:00,
2013-08-26 19:07:00,69.7,66.0,29.91,ENE,75,0.0,0.0,88,0.00,,,0.44,WeatherDisplay:10.37,2013-08-26 23:07:00,
2013-08-26 19:12:00,69.7,65.7,29.91,ENE,75,0.0,0.0,87,0.00,,,0.44,WeatherDisplay:10.37,2013-08-26 23:12:00,
2013-08-26 19:17:00,69.7,65.7,29.92,West,264,4.6,4.6,87,0.00,,,0.44,WeatherDisplay:10.37,2013-08-26 23:17:00,
2013-08-26 19:22:00,69.7,65.7,29.92,West,266,0.0,0.0,87,0.00,,,0.44,WeatherDisplay:10.37,2013-08-26 23:22:00,
2013-08-26 19:27:00,69.7,65.7,29.92,West,266,0.0,0.0,87,0.01,RA,,0.45,WeatherDisplay:10.37,2013-08-26 23:27:00,
2013-08-26 19:32:00,69.6,65.6,29.91,ESE,115,0.0,0.0,87,0.02,RA,,0.46,WeatherDisplay:10.37,2013-08-26 23:32:00,
2013-08-26 19:37:00,69.6,65.6,29.91,ESE,115,0.0,0.0,87,0.02,RA,,0.46,WeatherDisplay:10.37,2013-08-26 23:37:00,
2013-08-26 19:42:00,69.6,65.6,29.92,ESE,117,0.0,0.0,87,0.02,,,0.47,WeatherDisplay:10.37,2013-08-26 23:42:00,
2013-08-26 19:47:00,69.6,65.6,29.91,West,270,1.1,0.0,87,0.03,RA,,0.47,WeatherDisplay:10.37,2013-08-26 23:47:00,
2013-08-26 19:52:00,69.6,65.6,29.91,WSW,250,0.0,0.0,87,0.03,RA,,0.47,WeatherDisplay:10.37,2013-08-26 23:52:00,
2013-08-26 19:57:00,69.6,65.9,29.92,ESE,107,0.0,0.0,88,0.03,,,0.47,WeatherDisplay:10.37,2013-08-26 23:57:00,
2013-08-26 20:02:00,69.6,65.9,29.91,WSW,249,2.0,2.0,88,0.08,RA,,0.52,WeatherDisplay:10.37,2013-08-27 00:02:00,
2013-08-26 20:07:00,69.6,65.9,29.91,WSW,246,3.5,3.5,88,0.08,RA,,0.52,WeatherDisplay:10.37,2013-08-27 00:07:00,
2013-08-26 20:12:00,69.5,65.8,29.92,NNW,337,1.0,1.0,88,0.08,,,0.52,WeatherDisplay:10.37,2013-08-27 00:12:00,
2013-08-26 20:17:00,69.5,65.8,29.92,WSW,257,0.0,0.0,88,0.11,RA,,0.56,WeatherDisplay:10.37,2013-08-27 00:17:00,
2013-08-26 20:22:00,69.5,65.5,29.92,WSW,248,0.0,0.0,87,0.14,RA,,0.58,WeatherDisplay:10.37,2013-08-27 00:22:00,
2013-08-26 20:27:00,69.5,65.5,29.92,WSW,248,0.0,0.0,87,0.15,RA,,0.61,WeatherDisplay:10.37,2013-08-27 00:27:00,
2013-08-26 20:32:00,69.6,65.6,29.92,North,359,0.0,0.0,87,0.16,RA,,0.62,WeatherDisplay:10.37,2013-08-27 00:32:00,
2013-08-26 20:37:00,69.5,65.5,29.92,ENE,73,0.0,0.0,87,0.17,RA,,0.63,WeatherDisplay:10.37,2013-08-27 00:37:00,
2013-08-26 20:42:00,69.5,65.5,29.92,NW,314,0.0,0.0,87,0.19,RA,,0.65,WeatherDisplay:10.37,2013-08-27 00:42:00,
2013-08-26 20:47:00,69.5,65.5,29.92,ENE,76,0.0,0.0,87,0.22,RA,,0.70,WeatherDisplay:10.37,2013-08-27 00:47:00,
2013-08-26 20:52:00,69.5,65.5,29.92,ENE,76,0.0,0.0,87,0.25,RA,,0.72,WeatherDisplay:10.37,2013-08-27 00:52:00,
2013-08-26 20:57:00,69.5,65.5,29.93,ENE,77,0.0,0.0,87,0.25,RA,,0.73,WeatherDisplay:10.37,2013-08-27 00:57:00,
2013-08-26 21:02:00,69.6,65.6,29.93,SW,225,0.0,0.0,87,0.25,RA,,0.78,WeatherDisplay:10.37,2013-08-27 01:02:00,
2013-08-26 21:07:00,69.6,65.6,29.93,NW,314,0.0,0.0,87,0.29,RA,,0.84,WeatherDisplay:10.37,2013-08-27 01:07:00,
2013-08-26 21:13:00,69.6,65.6,29.93,WSW,250,1.1,0.0,87,0.41,RA,,0.94,WeatherDisplay:10.37,2013-08-27 01:13:00,
2013-08-26 21:18:00,69.7,65.7,29.93,West,270,3.5,3.5,87,0.41,RA,,0.97,WeatherDisplay:10.37,2013-08-27 01:18:00,
2013-08-26 21:23:00,69.7,65.7,29.93,NW,318,2.3,2.3,87,0.40,RA,,0.98,WeatherDisplay:10.37,2013-08-27 01:23:00,
2013-08-26 21:28:00,69.7,65.7,29.93,NE,53,0.0,0.0,87,0.41,RA,,1.02,WeatherDisplay:10.37,2013-08-27 01:28:00,
2013-08-26 21:34:00,69.7,65.7,29.93,SSW,205,1.1,1.1,87,0.52,RA,,1.18,WeatherDisplay:10.37,2013-08-27 01:34:00,
2013-08-26 21:39:00,69.7,65.7,29.93,NNW,330,0.0,0.0,87,0.58,RA,,1.22,WeatherDisplay:10.37,2013-08-27 01:39:00,
2013-08-26 21:44:00,69.7,65.7,29.93,NNW,330,0.0,0.0,87,0.56,RA,,1.22,WeatherDisplay:10.37,2013-08-27 01:44:00,
2013-08-26 21:49:00,69.7,65.7,29.92,NNW,330,0.0,0.0,87,0.52,,,1.22,WeatherDisplay:10.37,2013-08-27 01:49:00,
2013-08-26 21:54:00,69.7,65.7,29.93,East,93,0.0,0.0,87,0.51,RA,,1.23,WeatherDisplay:10.37,2013-08-27 01:54:00,
2013-08-26 21:59:00,69.7,65.7,29.92,SSW,212,0.0,0.0,87,0.50,RA,,1.23,WeatherDisplay:10.37,2013-08-27 01:59:00,
2013-08-26 22:04:00,69.7,65.7,29.93,SSW,212,0.0,0.0,87,0.44,,,1.23,WeatherDisplay:10.37,2013-08-27 02:04:00,
2013-08-26 22:12:00,69.6,65.6,29.93,SW,228,1.1,0.0,87,0.47,RA,,1.40,WeatherDisplay:10.37,2013-08-27 02:12:00,
2013-08-26 22:17:00,69.7,65.7,29.93,West,274,1.1,1.1,87,0.46,RA,,1.40,WeatherDisplay:10.37,2013-08-27 02:17:00,
2013-08-26 22:22:00,69.6,65.6,29.93,NNW,347,0.0,0.0,87,0.45,RA,,1.43,WeatherDisplay:10.37,2013-08-27 02:22:00,
2013-08-26 22:27:00,69.6,65.6,29.93,ESE,115,2.3,0.0,87,0.43,RA,,1.43,WeatherDisplay:10.37,2013-08-27 02:27:00,
2013-08-26 22:32:00,69.6,65.6,29.93,ESE,105,2.3,2.3,87,0.36,,,1.43,WeatherDisplay:10.37,2013-08-27 02:32:00,
2013-08-26 22:38:00,69.6,65.6,29.93,WSW,245,0.0,0.0,87,0.21,,,1.43,WeatherDisplay:10.37,2013-08-27 02:38:00,
2013-08-26 22:43:00,69.6,65.6,29.92,West,265,0.0,0.0,87,0.21,,,1.43,WeatherDisplay:10.37,2013-08-27 02:43:00,
2013-08-26 22:48:00,69.6,65.6,29.92,West,275,3.5,3.5,87,0.21,,,1.43,WeatherDisplay:10.37,2013-08-27 02:48:00,
2013-08-26 22:53:00,69.6,65.6,29.92,SW,228,0.0,0.0,87,0.20,,,1.43,WeatherDisplay:10.37,2013-08-27 02:53:00,
2013-08-26 22:58:00,69.6,65.6,29.92,NNW,332,2.3,2.3,87,0.20,,,1.43,WeatherDisplay:10.37,2013-08-27 02:58:00,
2013-08-26 23:03:00,69.7,65.7,29.92,ENE,72,0.0,0.0,87,0.20,,,1.43,WeatherDisplay:10.37,2013-08-27 03:03:00,
2013-08-26 23:08:00,69.7,65.7,29.92,West,269,2.3,0.0,87,0.08,,,1.43,WeatherDisplay:10.37,2013-08-27 03:08:00,
2013-08-26 23:13:00,69.8,65.8,29.92,WSW,253,1.1,0.0,87,0.03,,,1.43,WeatherDisplay:10.37,2013-08-27 03:13:00,
2013-08-26 23:18:00,69.8,65.8,29.92,SW,229,2.3,2.3,87,0.01,,,1.43,WeatherDisplay:10.37,2013-08-27 03:18:00,
2013-08-26 23:23:00,69.9,65.9,29.92,South,187,1.1,0.0,87,0.00,,,1.43,WeatherDisplay:10.37,2013-08-27 03:23:00,
2013-08-26 23:28:00,69.9,65.9,29.93,WNW,300,1.1,0.0,87,0.00,,,1.43,WeatherDisplay:10.37,2013-08-27 03:28:00,
2013-08-26 23:33:00,69.9,65.9,29.93,West,260,0.0,0.0,87,0.00,,,1.43,WeatherDisplay:10.37,2013-08-27 03:33:00,
2013-08-26 23:38:00,70.0,66.0,29.93,NNW,331,1.0,0.0,87,0.00,,,1.43,WeatherDisplay:10.37,2013-08-27 03:38:00,
2013-08-26 23:43:00,70.1,66.0,29.93,WNW,300,2.3,2.3,87,0.00,,,1.43,WeatherDisplay:10.37,2013-08-27 03:43:00,
2013-08-26 23:48:00,70.1,66.0,29.93,North,352,0.0,0.0,87,0.00,,,1.43,WeatherDisplay:10.37,2013-08-27 03:48:00,
2013-08-26 23:53:00,70.0,66.0,29.92,SW,219,0.0,0.0,87,0.00,,,1.43,WeatherDisplay:10.37,2013-08-27 03:53:00,
2013-08-26 23:58:00,70.1,66.0,29.92,NW,323,0.0,0.0,87,0.00,,,1.43,WeatherDisplay:10.37,2013-08-27 03:58:00,